sensor_id;sensor_type;location;lat;lon;timestamp;P1;durP1;ratioP1;P2;durP2;ratioP2
14326;SDS011;7247;53.330;-1.180;2022-11-20T00:02:25;52.03;;;28.90;;
14326;SDS011;7247;53.330;-1.180;2022-11-20T00:04:51;55.00;;;29.00;;
14326;SDS011;7247;53.330;-1.180;2022-11-20T00:07:18;60.33;;;30.53;;
14326;SDS011;7247;53.330;-1.180;2022-11-20T00:09:45;52.93;;;29.63;;
14326;SDS011;7247;53.330;-1.180;2022-11-20T00:12:12;54.97;;;30.47;;
14326;SDS011;7247;53.330;-1.180;2022-11-20T00:14:39;51.23;;;28.87;;
14326;SDS011;7247;53.330;-1.180;2022-11-20T00:17:06;49.33;;;26.93;;
14326;SDS011;7247;53.330;-1.180;2022-11-20T00:19:32;52.43;;;29.47;;
14326;SDS011;7247;53.330;-1.180;2022-11-20T00:21:59;56.67;;;28.73;;
14326;SDS011;7247;53.330;-1.180;2022-11-20T00:24:25;56.60;;;31.03;;
14326;SDS011;7247;53.330;-1.180;2022-11-20T00:26:52;62.47;;;31.50;;
14326;SDS011;7247;53.330;-1.180;2022-11-20T00:29:20;55.60;;;30.70;;
14326;SDS011;7247;53.330;-1.180;2022-11-20T00:31:46;57.93;;;31.13;;
14326;SDS011;7247;53.330;-1.180;2022-11-20T00:34:13;54.13;;;31.00;;
14326;SDS011;7247;53.330;-1.180;2022-11-20T00:36:39;61.83;;;32.13;;
14326;SDS011;7247;53.330;-1.180;2022-11-20T00:39:06;58.63;;;31.83;;
14326;SDS011;7247;53.330;-1.180;2022-11-20T00:41:32;64.93;;;32.40;;
14326;SDS011;7247;53.330;-1.180;2022-11-20T00:43:59;55.50;;;31.60;;
14326;SDS011;7247;53.330;-1.180;2022-11-20T00:46:27;63.10;;;33.67;;
14326;SDS011;7247;53.330;-1.180;2022-11-20T00:48:53;58.63;;;32.53;;
14326;SDS011;7247;53.330;-1.180;2022-11-20T00:51:20;59.67;;;32.67;;
14326;SDS011;7247;53.330;-1.180;2022-11-20T00:53:47;61.97;;;31.63;;
14326;SDS011;7247;53.330;-1.180;2022-11-20T00:56:15;65.00;;;34.00;;
14326;SDS011;7247;53.330;-1.180;2022-11-20T00:58:42;64.67;;;32.83;;
14326;SDS011;7247;53.330;-1.180;2022-11-20T01:01:10;59.73;;;31.83;;
14326;SDS011;7247;53.330;-1.180;2022-11-20T01:03:38;56.07;;;31.30;;
14326;SDS011;7247;53.330;-1.180;2022-11-20T01:06:05;57.03;;;29.90;;
14326;SDS011;7247;53.330;-1.180;2022-11-20T01:08:32;59.57;;;30.50;;
14326;SDS011;7247;53.330;-1.180;2022-11-20T01:11:00;52.67;;;29.30;;
14326;SDS011;7247;53.330;-1.180;2022-11-20T01:13:27;49.10;;;29.43;;
14326;SDS011;7247;53.330;-1.180;2022-11-20T01:16:06;58.60;;;30.13;;
14326;SDS011;7247;53.330;-1.180;2022-11-20T01:18:33;50.77;;;27.93;;
14326;SDS011;7247;53.330;-1.180;2022-11-20T01:21:01;54.80;;;29.40;;
14326;SDS011;7247;53.330;-1.180;2022-11-20T01:23:30;56.23;;;29.47;;
14326;SDS011;7247;53.330;-1.180;2022-11-20T01:25:56;57.80;;;30.70;;
14326;SDS011;7247;53.330;-1.180;2022-11-20T01:28:23;50.77;;;29.20;;
14326;SDS011;7247;53.330;-1.180;2022-11-20T01:30:49;61.30;;;30.37;;
14326;SDS011;7247;53.330;-1.180;2022-11-20T01:33:15;53.47;;;29.50;;
14326;SDS011;7247;53.330;-1.180;2022-11-20T01:35:42;58.47;;;30.57;;
14326;SDS011;7247;53.330;-1.180;2022-11-20T01:38:10;58.27;;;30.83;;
14326;SDS011;7247;53.330;-1.180;2022-11-20T01:40:36;55.77;;;31.57;;
14326;SDS011;7247;53.330;-1.180;2022-11-20T01:43:09;57.33;;;32.10;;
14326;SDS011;7247;53.330;-1.180;2022-11-20T01:45:56;59.53;;;30.77;;
14326;SDS011;7247;53.330;-1.180;2022-11-20T01:48:22;58.80;;;31.03;;
14326;SDS011;7247;53.330;-1.180;2022-11-20T01:50:49;56.07;;;30.43;;
14326;SDS011;7247;53.330;-1.180;2022-11-20T01:53:18;62.40;;;31.23;;
14326;SDS011;7247;53.330;-1.180;2022-11-20T01:55:48;58.23;;;29.03;;
14326;SDS011;7247;53.330;-1.180;2022-11-20T01:58:16;54.87;;;30.37;;
14326;SDS011;7247;53.330;-1.180;2022-11-20T02:00:42;57.30;;;31.17;;
14326;SDS011;7247;53.330;-1.180;2022-11-20T02:03:10;56.53;;;29.10;;
14326;SDS011;7247;53.330;-1.180;2022-11-20T02:05:38;59.10;;;29.33;;
14326;SDS011;7247;53.330;-1.180;2022-11-20T02:08:07;54.00;;;29.30;;
14326;SDS011;7247;53.330;-1.180;2022-11-20T02:10:35;51.37;;;29.00;;
14326;SDS011;7247;53.330;-1.180;2022-11-20T02:13:02;52.47;;;28.30;;
14326;SDS011;7247;53.330;-1.180;2022-11-20T02:15:45;55.90;;;28.40;;
14326;SDS011;7247;53.330;-1.180;2022-11-20T02:18:13;52.47;;;28.23;;
14326;SDS011;7247;53.330;-1.180;2022-11-20T02:20:40;51.73;;;28.37;;
14326;SDS011;7247;53.330;-1.180;2022-11-20T02:23:08;48.67;;;27.00;;
14326;SDS011;7247;53.330;-1.180;2022-11-20T02:25:39;51.27;;;27.70;;
14326;SDS011;7247;53.330;-1.180;2022-11-20T02:28:07;51.37;;;27.80;;
14326;SDS011;7247;53.330;-1.180;2022-11-20T02:30:34;48.97;;;26.47;;
14326;SDS011;7247;53.330;-1.180;2022-11-20T02:33:00;47.70;;;26.87;;
14326;SDS011;7247;53.330;-1.180;2022-11-20T02:35:41;50.27;;;27.23;;
14326;SDS011;7247;53.330;-1.180;2022-11-20T02:38:07;50.77;;;27.23;;
14326;SDS011;7247;53.330;-1.180;2022-11-20T02:40:34;45.00;;;25.93;;
14326;SDS011;7247;53.330;-1.180;2022-11-20T02:43:02;48.10;;;25.03;;
14326;SDS011;7247;53.330;-1.180;2022-11-20T02:45:28;46.97;;;25.10;;
14326;SDS011;7247;53.330;-1.180;2022-11-20T02:47:55;43.03;;;24.33;;
14326;SDS011;7247;53.330;-1.180;2022-11-20T02:50:21;46.27;;;24.40;;
14326;SDS011;7247;53.330;-1.180;2022-11-20T02:52:48;45.07;;;23.77;;
14326;SDS011;7247;53.330;-1.180;2022-11-20T02:55:14;42.70;;;23.27;;
14326;SDS011;7247;53.330;-1.180;2022-11-20T02:57:40;43.73;;;22.30;;
14326;SDS011;7247;53.330;-1.180;2022-11-20T03:00:09;47.63;;;23.60;;
14326;SDS011;7247;53.330;-1.180;2022-11-20T03:02:35;44.40;;;22.60;;
14326;SDS011;7247;53.330;-1.180;2022-11-20T03:05:02;40.17;;;22.47;;
14326;SDS011;7247;53.330;-1.180;2022-11-20T03:07:28;42.20;;;21.30;;
14326;SDS011;7247;53.330;-1.180;2022-11-20T03:09:55;39.13;;;22.07;;
14326;SDS011;7247;53.330;-1.180;2022-11-20T03:12:21;43.73;;;22.10;;
14326;SDS011;7247;53.330;-1.180;2022-11-20T03:14:48;40.93;;;21.13;;
14326;SDS011;7247;53.330;-1.180;2022-11-20T03:17:16;37.17;;;21.70;;
14326;SDS011;7247;53.330;-1.180;2022-11-20T03:19:43;43.80;;;22.30;;
14326;SDS011;7247;53.330;-1.180;2022-11-20T03:22:09;40.17;;;21.10;;
14326;SDS011;7247;53.330;-1.180;2022-11-20T03:24:36;37.83;;;20.67;;
14326;SDS011;7247;53.330;-1.180;2022-11-20T03:27:02;38.43;;;20.47;;
14326;SDS011;7247;53.330;-1.180;2022-11-20T03:29:29;41.07;;;21.23;;
14326;SDS011;7247;53.330;-1.180;2022-11-20T03:31:55;40.63;;;21.93;;
14326;SDS011;7247;53.330;-1.180;2022-11-20T03:34:23;41.30;;;20.90;;
14326;SDS011;7247;53.330;-1.180;2022-11-20T03:36:49;43.53;;;22.43;;
14326;SDS011;7247;53.330;-1.180;2022-11-20T03:39:16;41.53;;;22.77;;
14326;SDS011;7247;53.330;-1.180;2022-11-20T03:41:42;41.33;;;23.07;;
14326;SDS011;7247;53.330;-1.180;2022-11-20T03:44:10;40.30;;;22.30;;
14326;SDS011;7247;53.330;-1.180;2022-11-20T03:46:37;37.40;;;20.00;;
14326;SDS011;7247;53.330;-1.180;2022-11-20T03:49:04;41.90;;;22.30;;
14326;SDS011;7247;53.330;-1.180;2022-11-20T03:51:32;44.90;;;22.00;;
14326;SDS011;7247;53.330;-1.180;2022-11-20T03:54:00;39.17;;;21.60;;
14326;SDS011;7247;53.330;-1.180;2022-11-20T03:56:28;41.73;;;22.87;;
14326;SDS011;7247;53.330;-1.180;2022-11-20T03:58:54;44.53;;;21.53;;
14326;SDS011;7247;53.330;-1.180;2022-11-20T04:01:21;42.17;;;22.40;;
14326;SDS011;7247;53.330;-1.180;2022-11-20T04:03:48;42.67;;;21.43;;
14326;SDS011;7247;53.330;-1.180;2022-11-20T04:06:15;44.37;;;21.70;;
14326;SDS011;7247;53.330;-1.180;2022-11-20T04:08:43;39.97;;;21.90;;
14326;SDS011;7247;53.330;-1.180;2022-11-20T04:11:11;43.43;;;21.87;;
14326;SDS011;7247;53.330;-1.180;2022-11-20T04:13:37;42.67;;;21.37;;
14326;SDS011;7247;53.330;-1.180;2022-11-20T04:16:04;39.10;;;21.00;;
14326;SDS011;7247;53.330;-1.180;2022-11-20T04:18:30;44.87;;;21.30;;
14326;SDS011;7247;53.330;-1.180;2022-11-20T04:20:57;42.17;;;20.30;;
14326;SDS011;7247;53.330;-1.180;2022-11-20T04:23:24;40.63;;;19.90;;
14326;SDS011;7247;53.330;-1.180;2022-11-20T04:25:51;42.93;;;20.80;;
14326;SDS011;7247;53.330;-1.180;2022-11-20T04:28:18;37.40;;;20.93;;
14326;SDS011;7247;53.330;-1.180;2022-11-20T04:30:44;40.90;;;21.43;;
14326;SDS011;7247;53.330;-1.180;2022-11-20T04:33:11;42.03;;;20.87;;
14326;SDS011;7247;53.330;-1.180;2022-11-20T04:35:37;39.40;;;20.47;;
14326;SDS011;7247;53.330;-1.180;2022-11-20T04:38:04;42.77;;;20.37;;
14326;SDS011;7247;53.330;-1.180;2022-11-20T04:40:30;35.70;;;18.33;;
14326;SDS011;7247;53.330;-1.180;2022-11-20T04:42:58;33.30;;;18.03;;
14326;SDS011;7247;53.330;-1.180;2022-11-20T04:45:24;32.63;;;16.80;;
14326;SDS011;7247;53.330;-1.180;2022-11-20T04:47:51;30.17;;;16.27;;
14326;SDS011;7247;53.330;-1.180;2022-11-20T04:50:17;29.10;;;16.07;;
14326;SDS011;7247;53.330;-1.180;2022-11-20T04:52:44;29.97;;;15.33;;
14326;SDS011;7247;53.330;-1.180;2022-11-20T04:55:10;33.37;;;15.80;;
14326;SDS011;7247;53.330;-1.180;2022-11-20T04:57:37;29.77;;;14.43;;
14326;SDS011;7247;53.330;-1.180;2022-11-20T05:00:05;24.90;;;13.47;;
14326;SDS011;7247;53.330;-1.180;2022-11-20T05:02:32;24.50;;;13.93;;
14326;SDS011;7247;53.330;-1.180;2022-11-20T05:04:58;21.17;;;12.80;;
14326;SDS011;7247;53.330;-1.180;2022-11-20T05:07:24;24.93;;;13.77;;
14326;SDS011;7247;53.330;-1.180;2022-11-20T05:09:51;22.63;;;12.43;;
14326;SDS011;7247;53.330;-1.180;2022-11-20T05:12:17;27.23;;;12.80;;
14326;SDS011;7247;53.330;-1.180;2022-11-20T05:14:44;26.93;;;13.20;;
14326;SDS011;7247;53.330;-1.180;2022-11-20T05:17:12;22.50;;;11.87;;
14326;SDS011;7247;53.330;-1.180;2022-11-20T05:19:39;19.87;;;11.17;;
14326;SDS011;7247;53.330;-1.180;2022-11-20T05:22:05;23.97;;;11.10;;
14326;SDS011;7247;53.330;-1.180;2022-11-20T05:24:32;18.70;;;10.47;;
14326;SDS011;7247;53.330;-1.180;2022-11-20T05:26:58;18.57;;;10.50;;
14326;SDS011;7247;53.330;-1.180;2022-11-20T05:29:25;19.27;;;10.70;;
14326;SDS011;7247;53.330;-1.180;2022-11-20T05:31:51;16.63;;;9.80;;
14326;SDS011;7247;53.330;-1.180;2022-11-20T05:34:19;18.40;;;9.87;;
14326;SDS011;7247;53.330;-1.180;2022-11-20T05:36:45;20.40;;;10.60;;
14326;SDS011;7247;53.330;-1.180;2022-11-20T05:39:12;17.67;;;10.63;;
14326;SDS011;7247;53.330;-1.180;2022-11-20T05:41:38;15.17;;;9.70;;
14326;SDS011;7247;53.330;-1.180;2022-11-20T05:44:04;17.07;;;10.30;;
14326;SDS011;7247;53.330;-1.180;2022-11-20T05:46:31;15.30;;;10.80;;
14326;SDS011;7247;53.330;-1.180;2022-11-20T05:48:57;19.30;;;10.50;;
14326;SDS011;7247;53.330;-1.180;2022-11-20T05:51:26;19.30;;;10.90;;
14326;SDS011;7247;53.330;-1.180;2022-11-20T05:53:52;20.07;;;12.70;;
14326;SDS011;7247;53.330;-1.180;2022-11-20T05:56:19;20.03;;;12.07;;
14326;SDS011;7247;53.330;-1.180;2022-11-20T05:58:46;17.53;;;10.67;;
14326;SDS011;7247;53.330;-1.180;2022-11-20T06:01:13;19.53;;;11.43;;
14326;SDS011;7247;53.330;-1.180;2022-11-20T06:03:40;15.50;;;10.80;;
14326;SDS011;7247;53.330;-1.180;2022-11-20T06:06:10;15.93;;;10.73;;
14326;SDS011;7247;53.330;-1.180;2022-11-20T06:08:38;15.57;;;10.07;;
14326;SDS011;7247;53.330;-1.180;2022-11-20T06:11:05;15.03;;;8.87;;
14326;SDS011;7247;53.330;-1.180;2022-11-20T06:13:32;12.77;;;8.80;;
14326;SDS011;7247;53.330;-1.180;2022-11-20T06:15:58;13.53;;;8.43;;
14326;SDS011;7247;53.330;-1.180;2022-11-20T06:18:25;18.60;;;8.43;;
14326;SDS011;7247;53.330;-1.180;2022-11-20T06:20:58;12.90;;;8.37;;
14326;SDS011;7247;53.330;-1.180;2022-11-20T06:23:25;13.27;;;8.33;;
14326;SDS011;7247;53.330;-1.180;2022-11-20T06:25:53;14.37;;;8.40;;
14326;SDS011;7247;53.330;-1.180;2022-11-20T06:28:19;13.00;;;8.23;;
14326;SDS011;7247;53.330;-1.180;2022-11-20T06:30:45;11.20;;;7.83;;
14326;SDS011;7247;53.330;-1.180;2022-11-20T06:33:12;12.10;;;8.13;;
14326;SDS011;7247;53.330;-1.180;2022-11-20T06:35:38;13.73;;;8.27;;
14326;SDS011;7247;53.330;-1.180;2022-11-20T06:38:05;10.17;;;7.00;;
14326;SDS011;7247;53.330;-1.180;2022-11-20T06:40:31;11.27;;;6.90;;
14326;SDS011;7247;53.330;-1.180;2022-11-20T06:42:59;10.77;;;6.53;;
14326;SDS011;7247;53.330;-1.180;2022-11-20T06:45:25;8.83;;;5.90;;
14326;SDS011;7247;53.330;-1.180;2022-11-20T06:47:52;8.37;;;6.07;;
14326;SDS011;7247;53.330;-1.180;2022-11-20T06:50:18;9.87;;;6.33;;
14326;SDS011;7247;53.330;-1.180;2022-11-20T06:52:44;8.63;;;6.00;;
14326;SDS011;7247;53.330;-1.180;2022-11-20T06:55:11;7.13;;;5.70;;
14326;SDS011;7247;53.330;-1.180;2022-11-20T06:57:37;7.07;;;5.70;;
14326;SDS011;7247;53.330;-1.180;2022-11-20T07:00:06;7.53;;;5.40;;
14326;SDS011;7247;53.330;-1.180;2022-11-20T07:02:32;7.23;;;5.37;;
14326;SDS011;7247;53.330;-1.180;2022-11-20T07:04:59;7.90;;;5.10;;
14326;SDS011;7247;53.330;-1.180;2022-11-20T07:07:25;7.80;;;5.10;;
14326;SDS011;7247;53.330;-1.180;2022-11-20T07:09:51;7.50;;;5.00;;
14326;SDS011;7247;53.330;-1.180;2022-11-20T07:12:18;7.27;;;4.80;;
14326;SDS011;7247;53.330;-1.180;2022-11-20T07:14:44;5.57;;;4.67;;
14326;SDS011;7247;53.330;-1.180;2022-11-20T07:17:12;5.43;;;4.60;;
14326;SDS011;7247;53.330;-1.180;2022-11-20T07:19:38;6.57;;;4.80;;
14326;SDS011;7247;53.330;-1.180;2022-11-20T07:22:05;6.17;;;4.67;;
14326;SDS011;7247;53.330;-1.180;2022-11-20T07:24:31;7.40;;;5.23;;
14326;SDS011;7247;53.330;-1.180;2022-11-20T07:26:58;5.80;;;5.20;;
14326;SDS011;7247;53.330;-1.180;2022-11-20T07:29:24;6.10;;;5.37;;
14326;SDS011;7247;53.330;-1.180;2022-11-20T07:31:50;6.73;;;5.63;;
14326;SDS011;7247;53.330;-1.180;2022-11-20T07:34:18;6.03;;;5.43;;
14326;SDS011;7247;53.330;-1.180;2022-11-20T07:36:45;6.93;;;5.30;;
14326;SDS011;7247;53.330;-1.180;2022-11-20T07:39:11;6.70;;;5.97;;
14326;SDS011;7247;53.330;-1.180;2022-11-20T07:41:37;7.00;;;6.30;;
14326;SDS011;7247;53.330;-1.180;2022-11-20T07:44:04;7.40;;;6.60;;
14326;SDS011;7247;53.330;-1.180;2022-11-20T07:46:31;8.23;;;6.60;;
14326;SDS011;7247;53.330;-1.180;2022-11-20T07:48:57;8.20;;;6.30;;
14326;SDS011;7247;53.330;-1.180;2022-11-20T07:51:25;7.23;;;6.40;;
14326;SDS011;7247;53.330;-1.180;2022-11-20T07:53:52;9.77;;;6.77;;
14326;SDS011;7247;53.330;-1.180;2022-11-20T07:56:18;10.10;;;6.50;;
14326;SDS011;7247;53.330;-1.180;2022-11-20T07:58:45;9.13;;;7.13;;
14326;SDS011;7247;53.330;-1.180;2022-11-20T08:01:11;12.17;;;7.87;;
14326;SDS011;7247;53.330;-1.180;2022-11-20T08:03:38;9.80;;;7.63;;
14326;SDS011;7247;53.330;-1.180;2022-11-20T08:06:04;11.23;;;7.90;;
14326;SDS011;7247;53.330;-1.180;2022-11-20T08:08:32;9.47;;;7.17;;
14326;SDS011;7247;53.330;-1.180;2022-11-20T08:10:59;10.53;;;7.20;;
14326;SDS011;7247;53.330;-1.180;2022-11-20T08:13:46;13.40;;;7.77;;
14326;SDS011;7247;53.330;-1.180;2022-11-20T08:16:30;13.70;;;7.07;;
14326;SDS011;7247;53.330;-1.180;2022-11-20T08:18:56;13.23;;;7.70;;
14326;SDS011;7247;53.330;-1.180;2022-11-20T08:21:23;10.33;;;7.23;;
14326;SDS011;7247;53.330;-1.180;2022-11-20T08:23:51;9.30;;;7.20;;
14326;SDS011;7247;53.330;-1.180;2022-11-20T08:26:17;9.80;;;7.00;;
14326;SDS011;7247;53.330;-1.180;2022-11-20T08:28:43;9.40;;;7.10;;
14326;SDS011;7247;53.330;-1.180;2022-11-20T08:31:10;11.37;;;7.80;;
14326;SDS011;7247;53.330;-1.180;2022-11-20T08:33:36;13.00;;;7.30;;
14326;SDS011;7247;53.330;-1.180;2022-11-20T08:36:03;11.60;;;6.67;;
14326;SDS011;7247;53.330;-1.180;2022-11-20T08:38:30;14.07;;;7.40;;
14326;SDS011;7247;53.330;-1.180;2022-11-20T08:40:58;15.23;;;7.80;;
14326;SDS011;7247;53.330;-1.180;2022-11-20T08:43:45;16.33;;;9.23;;
14326;SDS011;7247;53.330;-1.180;2022-11-20T08:46:11;19.03;;;9.47;;
14326;SDS011;7247;53.330;-1.180;2022-11-20T08:48:38;16.90;;;9.43;;
14326;SDS011;7247;53.330;-1.180;2022-11-20T08:51:04;19.40;;;9.70;;
14326;SDS011;7247;53.330;-1.180;2022-11-20T08:53:32;19.53;;;10.33;;
14326;SDS011;7247;53.330;-1.180;2022-11-20T08:56:00;17.93;;;9.90;;
14326;SDS011;7247;53.330;-1.180;2022-11-20T08:58:26;18.80;;;10.20;;
14326;SDS011;7247;53.330;-1.180;2022-11-20T09:00:53;16.77;;;8.97;;
14326;SDS011;7247;53.330;-1.180;2022-11-20T09:03:19;18.07;;;8.77;;
14326;SDS011;7247;53.330;-1.180;2022-11-20T09:05:46;12.77;;;7.47;;
14326;SDS011;7247;53.330;-1.180;2022-11-20T09:08:12;12.90;;;6.80;;
14326;SDS011;7247;53.330;-1.180;2022-11-20T09:10:39;13.63;;;6.63;;
14326;SDS011;7247;53.330;-1.180;2022-11-20T09:13:07;13.73;;;6.83;;
14326;SDS011;7247;53.330;-1.180;2022-11-20T09:15:33;9.70;;;6.03;;
14326;SDS011;7247;53.330;-1.180;2022-11-20T09:18:00;9.40;;;4.93;;
14326;SDS011;7247;53.330;-1.180;2022-11-20T09:20:28;12.93;;;5.67;;
14326;SDS011;7247;53.330;-1.180;2022-11-20T09:22:54;12.83;;;6.30;;
14326;SDS011;7247;53.330;-1.180;2022-11-20T09:25:21;11.20;;;5.13;;
14326;SDS011;7247;53.330;-1.180;2022-11-20T09:27:47;14.33;;;5.67;;
14326;SDS011;7247;53.330;-1.180;2022-11-20T09:30:15;10.57;;;5.40;;
14326;SDS011;7247;53.330;-1.180;2022-11-20T09:32:42;15.07;;;5.50;;
14326;SDS011;7247;53.330;-1.180;2022-11-20T09:35:09;11.00;;;5.50;;
14326;SDS011;7247;53.330;-1.180;2022-11-20T09:37:35;13.27;;;5.43;;
14326;SDS011;7247;53.330;-1.180;2022-11-20T09:40:02;14.17;;;5.83;;
14326;SDS011;7247;53.330;-1.180;2022-11-20T09:42:32;13.23;;;5.57;;
14326;SDS011;7247;53.330;-1.180;2022-11-20T09:45:05;12.10;;;5.33;;
14326;SDS011;7247;53.330;-1.180;2022-11-20T09:47:40;8.93;;;5.00;;
14326;SDS011;7247;53.330;-1.180;2022-11-20T09:50:14;12.50;;;5.30;;
14326;SDS011;7247;53.330;-1.180;2022-11-20T09:52:47;11.93;;;5.93;;
14326;SDS011;7247;53.330;-1.180;2022-11-20T09:55:16;14.50;;;5.87;;
14326;SDS011;7247;53.330;-1.180;2022-11-20T09:57:44;15.53;;;6.13;;
14326;SDS011;7247;53.330;-1.180;2022-11-20T10:00:13;15.63;;;6.73;;
14326;SDS011;7247;53.330;-1.180;2022-11-20T10:02:42;15.20;;;6.80;;
14326;SDS011;7247;53.330;-1.180;2022-11-20T10:05:12;19.13;;;7.43;;
14326;SDS011;7247;53.330;-1.180;2022-11-20T10:07:43;16.77;;;7.17;;
14326;SDS011;7247;53.330;-1.180;2022-11-20T10:10:14;20.37;;;7.87;;
14326;SDS011;7247;53.330;-1.180;2022-11-20T10:12:45;16.67;;;6.70;;
14326;SDS011;7247;53.330;-1.180;2022-11-20T10:15:18;18.47;;;7.10;;
14326;SDS011;7247;53.330;-1.180;2022-11-20T10:20:40;18.47;;;6.43;;
14326;SDS011;7247;53.330;-1.180;2022-11-20T10:23:16;16.67;;;4.97;;
14326;SDS011;7247;53.330;-1.180;2022-11-20T10:25:47;21.50;;;5.27;;
14326;SDS011;7247;53.330;-1.180;2022-11-20T10:28:17;14.20;;;4.60;;
14326;SDS011;7247;53.330;-1.180;2022-11-20T10:30:46;13.73;;;4.80;;
14326;SDS011;7247;53.330;-1.180;2022-11-20T10:33:18;18.17;;;4.83;;
14326;SDS011;7247;53.330;-1.180;2022-11-20T10:35:49;14.83;;;4.13;;
14326;SDS011;7247;53.330;-1.180;2022-11-20T10:38:18;17.60;;;5.00;;
14326;SDS011;7247;53.330;-1.180;2022-11-20T10:40:47;15.23;;;4.60;;
14326;SDS011;7247;53.330;-1.180;2022-11-20T10:43:16;13.47;;;3.70;;
14326;SDS011;7247;53.330;-1.180;2022-11-20T10:45:45;11.63;;;4.40;;
14326;SDS011;7247;53.330;-1.180;2022-11-20T10:48:15;15.73;;;4.23;;
14326;SDS011;7247;53.330;-1.180;2022-11-20T10:50:45;14.83;;;3.90;;
14326;SDS011;7247;53.330;-1.180;2022-11-20T10:53:18;17.40;;;4.57;;
14326;SDS011;7247;53.330;-1.180;2022-11-20T10:55:48;18.43;;;4.93;;
14326;SDS011;7247;53.330;-1.180;2022-11-20T10:58:16;17.53;;;4.27;;
14326;SDS011;7247;53.330;-1.180;2022-11-20T11:00:45;20.73;;;4.23;;
14326;SDS011;7247;53.330;-1.180;2022-11-20T11:03:17;20.20;;;4.33;;
14326;SDS011;7247;53.330;-1.180;2022-11-20T11:05:47;21.07;;;4.90;;
14326;SDS011;7247;53.330;-1.180;2022-11-20T11:08:17;16.07;;;3.50;;
14326;SDS011;7247;53.330;-1.180;2022-11-20T11:10:45;12.80;;;2.93;;
14326;SDS011;7247;53.330;-1.180;2022-11-20T11:13:19;11.33;;;3.80;;
14326;SDS011;7247;53.330;-1.180;2022-11-20T11:15:45;12.73;;;3.87;;
14326;SDS011;7247;53.330;-1.180;2022-11-20T11:18:22;17.27;;;3.37;;
14326;SDS011;7247;53.330;-1.180;2022-11-20T11:20:49;14.20;;;3.40;;
14326;SDS011;7247;53.330;-1.180;2022-11-20T11:23:26;10.30;;;3.73;;
14326;SDS011;7247;53.330;-1.180;2022-11-20T11:25:56;9.87;;;3.20;;
14326;SDS011;7247;53.330;-1.180;2022-11-20T11:28:22;13.90;;;3.73;;
14326;SDS011;7247;53.330;-1.180;2022-11-20T11:30:52;12.00;;;3.63;;
14326;SDS011;7247;53.330;-1.180;2022-11-20T11:33:19;15.70;;;3.60;;
14326;SDS011;7247;53.330;-1.180;2022-11-20T11:35:46;15.37;;;3.63;;
14326;SDS011;7247;53.330;-1.180;2022-11-20T11:38:14;15.93;;;3.67;;
14326;SDS011;7247;53.330;-1.180;2022-11-20T11:40:43;17.97;;;3.70;;
14326;SDS011;7247;53.330;-1.180;2022-11-20T11:43:16;12.90;;;3.57;;
14326;SDS011;7247;53.330;-1.180;2022-11-20T11:45:57;17.67;;;3.97;;
14326;SDS011;7247;53.330;-1.180;2022-11-20T11:48:24;15.80;;;3.70;;
14326;SDS011;7247;53.330;-1.180;2022-11-20T11:50:50;12.37;;;3.43;;
14326;SDS011;7247;53.330;-1.180;2022-11-20T11:53:17;17.73;;;4.13;;
14326;SDS011;7247;53.330;-1.180;2022-11-20T11:55:47;10.30;;;3.63;;
14326;SDS011;7247;53.330;-1.180;2022-11-20T11:58:17;13.40;;;3.27;;
14326;SDS011;7247;53.330;-1.180;2022-11-20T12:00:49;15.83;;;3.27;;
14326;SDS011;7247;53.330;-1.180;2022-11-20T12:03:18;11.33;;;3.60;;
14326;SDS011;7247;53.330;-1.180;2022-11-20T12:05:46;11.03;;;3.43;;
14326;SDS011;7247;53.330;-1.180;2022-11-20T12:08:15;12.23;;;3.90;;
14326;SDS011;7247;53.330;-1.180;2022-11-20T12:10:45;12.53;;;3.90;;
14326;SDS011;7247;53.330;-1.180;2022-11-20T12:13:17;18.40;;;4.37;;
14326;SDS011;7247;53.330;-1.180;2022-11-20T12:15:47;15.77;;;4.07;;
14326;SDS011;7247;53.330;-1.180;2022-11-20T12:18:15;11.10;;;3.67;;
14326;SDS011;7247;53.330;-1.180;2022-11-20T12:20:44;11.90;;;3.70;;
14326;SDS011;7247;53.330;-1.180;2022-11-20T12:23:14;14.83;;;3.67;;
14326;SDS011;7247;53.330;-1.180;2022-11-20T12:25:42;12.37;;;4.07;;
14326;SDS011;7247;53.330;-1.180;2022-11-20T12:28:20;15.40;;;4.07;;
14326;SDS011;7247;53.330;-1.180;2022-11-20T12:30:51;8.97;;;3.87;;
14326;SDS011;7247;53.330;-1.180;2022-11-20T12:33:22;13.03;;;3.77;;
14326;SDS011;7247;53.330;-1.180;2022-11-20T12:36:03;14.87;;;3.70;;
14326;SDS011;7247;53.330;-1.180;2022-11-20T12:38:45;11.80;;;3.50;;
14326;SDS011;7247;53.330;-1.180;2022-11-20T12:41:15;13.43;;;3.03;;
14326;SDS011;7247;53.330;-1.180;2022-11-20T12:44:09;9.70;;;3.10;;
14326;SDS011;7247;53.330;-1.180;2022-11-20T12:46:59;9.40;;;3.43;;
14326;SDS011;7247;53.330;-1.180;2022-11-20T12:49:32;14.87;;;3.40;;
14326;SDS011;7247;53.330;-1.180;2022-11-20T12:52:06;13.63;;;3.43;;
14326;SDS011;7247;53.330;-1.180;2022-11-20T12:54:40;11.70;;;3.03;;
14326;SDS011;7247;53.330;-1.180;2022-11-20T12:57:09;9.63;;;3.00;;
14326;SDS011;7247;53.330;-1.180;2022-11-20T12:59:47;11.00;;;3.07;;
14326;SDS011;7247;53.330;-1.180;2022-11-20T13:02:18;12.47;;;3.00;;
14326;SDS011;7247;53.330;-1.180;2022-11-20T13:05:01;16.53;;;2.93;;
14326;SDS011;7247;53.330;-1.180;2022-11-20T13:07:29;11.97;;;3.07;;
14326;SDS011;7247;53.330;-1.180;2022-11-20T13:09:56;14.63;;;3.23;;
14326;SDS011;7247;53.330;-1.180;2022-11-20T13:12:24;12.60;;;3.10;;
14326;SDS011;7247;53.330;-1.180;2022-11-20T13:14:53;13.37;;;3.10;;
14326;SDS011;7247;53.330;-1.180;2022-11-20T13:17:23;11.90;;;3.20;;
14326;SDS011;7247;53.330;-1.180;2022-11-20T13:19:51;12.00;;;2.83;;
14326;SDS011;7247;53.330;-1.180;2022-11-20T13:22:23;9.40;;;2.73;;
14326;SDS011;7247;53.330;-1.180;2022-11-20T13:24:50;10.87;;;3.30;;
14326;SDS011;7247;53.330;-1.180;2022-11-20T13:27:18;15.57;;;3.33;;
14326;SDS011;7247;53.330;-1.180;2022-11-20T13:29:46;10.40;;;3.30;;
14326;SDS011;7247;53.330;-1.180;2022-11-20T13:32:15;13.63;;;2.90;;
14326;SDS011;7247;53.330;-1.180;2022-11-20T13:34:51;14.77;;;2.90;;
14326;SDS011;7247;53.330;-1.180;2022-11-20T13:37:24;14.23;;;3.27;;
14326;SDS011;7247;53.330;-1.180;2022-11-20T13:39:50;14.43;;;2.90;;
14326;SDS011;7247;53.330;-1.180;2022-11-20T13:42:20;16.57;;;3.10;;
14326;SDS011;7247;53.330;-1.180;2022-11-20T13:44:50;14.43;;;3.63;;
14326;SDS011;7247;53.330;-1.180;2022-11-20T13:47:21;12.53;;;3.40;;
14326;SDS011;7247;53.330;-1.180;2022-11-20T13:49:48;14.87;;;3.30;;
14326;SDS011;7247;53.330;-1.180;2022-11-20T13:52:25;16.70;;;3.47;;
14326;SDS011;7247;53.330;-1.180;2022-11-20T13:55:00;12.63;;;3.60;;
14326;SDS011;7247;53.330;-1.180;2022-11-20T13:57:35;16.87;;;4.20;;
14326;SDS011;7247;53.330;-1.180;2022-11-20T14:00:09;18.47;;;3.97;;
14326;SDS011;7247;53.330;-1.180;2022-11-20T14:02:38;14.93;;;3.43;;
14326;SDS011;7247;53.330;-1.180;2022-11-20T14:05:05;17.30;;;3.83;;
14326;SDS011;7247;53.330;-1.180;2022-11-20T14:07:39;12.67;;;3.30;;
14326;SDS011;7247;53.330;-1.180;2022-11-20T14:10:18;16.10;;;3.40;;
14326;SDS011;7247;53.330;-1.180;2022-11-20T14:12:45;12.33;;;3.37;;
14326;SDS011;7247;53.330;-1.180;2022-11-20T14:15:23;14.33;;;3.60;;
14326;SDS011;7247;53.330;-1.180;2022-11-20T14:17:51;12.53;;;3.33;;
14326;SDS011;7247;53.330;-1.180;2022-11-20T14:20:18;12.73;;;3.20;;
14326;SDS011;7247;53.330;-1.180;2022-11-20T14:22:48;12.60;;;3.87;;
14326;SDS011;7247;53.330;-1.180;2022-11-20T14:25:18;16.40;;;3.40;;
14326;SDS011;7247;53.330;-1.180;2022-11-20T14:27:47;12.23;;;3.30;;
14326;SDS011;7247;53.330;-1.180;2022-11-20T14:30:17;11.50;;;3.33;;
14326;SDS011;7247;53.330;-1.180;2022-11-20T14:32:44;13.27;;;3.20;;
14326;SDS011;7247;53.330;-1.180;2022-11-20T14:35:14;14.77;;;3.03;;
14326;SDS011;7247;53.330;-1.180;2022-11-20T14:37:44;13.50;;;3.43;;
14326;SDS011;7247;53.330;-1.180;2022-11-20T14:40:25;13.10;;;3.23;;
14326;SDS011;7247;53.330;-1.180;2022-11-20T14:42:52;14.63;;;3.10;;